Time;durP1;ratioP1;P1;durP2;ratioP2;P2;SDS_P1;SDS_P2;PMS_P1;PMS_P2;Temp;Humidity;BMP_temperature;BMP_pressure;BME280_temperature;BME280_humidity;BME280_pressure;Samples;Min_cycle;Max_cycle;Signal;HPM_P1;HPM_P2
2022/11/27 00:01:42;;;;;;;0.65;0.40;;;14.30;79.60;;;;;;4983393;28;20302;-89
2022/11/27 00:04:26;;;;;;;1.10;0.52;;;14.30;79.70;;;;;;4984110;28;20053;-89
2022/11/27 00:07:11;;;;;;;1.38;0.40;;;14.30;79.70;;;;;;4978161;28;20514;-87
2022/11/27 00:09:56;;;;;;;3.10;0.45;;;14.30;79.70;;;;;;4981759;28;20441;-88
2022/11/27 00:12:40;;;;;;;1.05;0.50;;;14.30;79.70;;;;;;4984687;28;20054;-85
2022/11/27 00:15:25;;;;;;;0.63;0.40;;;14.30;79.80;;;;;;4970541;28;20064;-86
2022/11/27 00:18:10;;;;;;;0.93;0.40;;;14.30;79.80;;;;;;4982550;28;20049;-86
2022/11/27 00:20:55;;;;;;;0.98;0.75;;;14.40;80.00;;;;;;4982021;28;20072;-85
2022/11/27 00:23:40;;;;;;;1.27;0.57;;;14.40;80.00;;;;;;4969465;28;20048;-85
2022/11/27 00:26:26;;;;;;;2.03;0.88;;;14.40;80.00;;;;;;4981859;28;20564;-84
2022/11/27 00:29:12;;;;;;;2.10;0.60;;;14.30;79.80;;;;;;4983945;28;20136;-85
2022/11/27 00:31:57;;;;;;;2.45;0.50;;;14.30;79.80;;;;;;4983432;28;20465;-85
2022/11/27 00:34:41;;;;;;;1.05;0.30;;;14.40;80.00;;;;;;4983844;28;20080;-84
2022/11/27 00:37:26;;;;;;;1.33;0.45;;;14.30;79.90;;;;;;4970012;28;20097;-84
2022/11/27 00:40:11;;;;;;;0.82;0.43;;;14.40;80.10;;;;;;4972132;28;20046;-85
2022/11/27 00:42:55;;;;;;;1.83;0.50;;;14.30;80.00;;;;;;4973276;28;20093;-84
2022/11/27 00:45:40;;;;;;;2.15;0.70;;;14.30;80.00;;;;;;4978269;28;20044;-84
2022/11/27 00:48:24;;;;;;;0.85;0.50;;;14.30;80.00;;;;;;4978949;28;20066;-83
2022/11/27 00:51:12;;;;;;;0.98;0.47;;;14.30;80.10;;;;;;4984227;28;20049;-83
2022/11/27 00:53:57;;;;;;;0.88;0.50;;;14.30;80.10;;;;;;4994110;28;20493;-83
2022/11/27 00:56:41;;;;;;;0.82;0.50;;;14.30;80.20;;;;;;4996068;28;20057;-84
2022/11/27 00:59:26;;;;;;;0.90;0.50;;;14.30;80.20;;;;;;4992135;28;20042;-84
2022/11/27 01:02:10;;;;;;;1.95;1.27;;;14.30;80.20;;;;;;4992942;28;20516;-83
2022/11/27 01:04:55;;;;;;;1.23;0.43;;;14.30;80.20;;;;;;5006654;28;20178;-82
2022/11/27 01:07:40;;;;;;;1.85;0.50;;;14.30;80.30;;;;;;5006476;28;20369;-82
2022/11/27 01:10:24;;;;;;;1.52;0.57;;;14.30;80.30;;;;;;4987017;28;20073;-84
2022/11/27 01:13:09;;;;;;;1.77;0.43;;;14.30;80.30;;;;;;4993469;28;20032;-85
2022/11/27 01:16:01;;;;;;;0.75;0.50;;;14.30;80.30;;;;;;4982860;28;20112;-85
2022/11/27 01:18:47;;;;;;;1.27;0.55;;;14.30;80.40;;;;;;4987368;28;20413;-86
2022/11/27 01:21:34;;;;;;;0.85;0.50;;;14.30;80.40;;;;;;4989721;28;20296;-86
2022/11/27 01:24:18;;;;;;;1.52;0.55;;;14.30;80.40;;;;;;4989956;28;20169;-85
2022/11/27 01:27:02;;;;;;;1.95;0.65;;;14.30;80.40;;;;;;4992105;28;20536;-85
2022/11/27 01:29:48;;;;;;;7.88;2.08;;;14.30;80.40;;;;;;4982494;28;20088;-86
2022/11/27 01:32:32;;;;;;;0.85;0.47;;;14.30;80.40;;;;;;4986369;28;20565;-85
2022/11/27 01:35:17;;;;;;;3.03;1.40;;;14.30;80.50;;;;;;4980217;28;20107;-87
2022/11/27 01:38:02;;;;;;;3.17;0.98;;;14.30;80.50;;;;;;4973463;28;20052;-86
2022/11/27 01:40:47;;;;;;;2.72;0.68;;;14.20;80.90;;;;;;4984808;28;20092;-86
2022/11/27 01:43:43;;;;;;;1.75;0.45;;;14.20;80.40;;;;;;4986730;28;20105;-86
2022/11/27 01:46:42;;;;;;;2.55;0.70;;;14.20;80.40;;;;;;4984970;28;20040;-86
2022/11/27 01:49:34;;;;;;;1.95;0.95;;;14.20;80.50;;;;;;4976311;28;20453;-86
2022/11/27 01:52:26;;;;;;;2.78;0.90;;;14.20;80.50;;;;;;4983068;28;20042;-85
2022/11/27 01:55:22;;;;;;;3.67;0.60;;;14.20;80.50;;;;;;4982916;28;20104;-85
2022/11/27 01:58:28;;;;;;;2.08;0.70;;;14.10;80.40;;;;;;4983145;28;20092;-86
2022/11/27 02:01:13;;;;;;;1.30;0.82;;;14.10;80.40;;;;;;4985492;28;20564;-86
2022/11/27 02:04:00;;;;;;;2.65;0.88;;;14.10;80.50;;;;;;4968340;28;20162;-85
2022/11/27 02:06:45;;;;;;;2.67;1.25;;;14.10;80.50;;;;;;4983773;28;20073;-85
2022/11/27 02:09:30;;;;;;;3.33;1.05;;;14.10;80.50;;;;;;4980741;28;20413;-84
2022/11/27 02:12:23;;;;;;;2.65;1.02;;;14.10;80.60;;;;;;4978853;28;20089;-84
2022/11/27 02:15:18;;;;;;;4.95;0.90;;;14.10;80.60;;;;;;4973865;28;20085;-83
2022/11/27 02:18:16;;;;;;;3.85;1.38;;;14.10;80.60;;;;;;4983136;28;20088;-83
2022/11/27 02:21:21;;;;;;;3.63;0.80;;;14.10;80.60;;;;;;4983631;28;20053;-82
2022/11/27 02:24:20;;;;;;;4.57;1.15;;;14.00;80.50;;;;;;4978908;28;20054;-82
2022/11/27 02:27:21;;;;;;;3.97;1.45;;;14.00;80.50;;;;;;4977736;28;20057;-82
2022/11/27 02:30:06;;;;;;;2.15;0.80;;;14.00;80.50;;;;;;4973986;28;20651;-82
2022/11/27 02:32:57;;;;;;;3.15;0.70;;;14.00;80.50;;;;;;4985275;28;20077;-81
2022/11/27 02:35:57;;;;;;;4.00;1.10;;;14.00;80.60;;;;;;4978448;28;20490;-83
2022/11/27 02:38:50;;;;;;;4.22;1.88;;;14.00;80.60;;;;;;4979495;28;20049;-84
2022/11/27 02:41:49;;;;;;;10.48;1.42;;;14.00;80.70;;;;;;4985574;28;20115;-83
2022/11/27 02:44:40;;;;;;;4.20;1.10;;;13.90;80.50;;;;;;4977179;28;20229;-84
2022/11/27 02:47:27;;;;;;;5.50;1.10;;;14.00;80.70;;;;;;4975673;28;20180;-83
2022/11/27 02:50:17;;;;;;;3.30;1.00;;;13.90;80.50;;;;;;4989174;28;20112;-83
2022/11/27 02:53:07;;;;;;;7.72;1.20;;;14.00;80.70;;;;;;4977076;28;20106;-84
2022/11/27 02:55:52;;;;;;;6.13;1.30;;;13.90;80.60;;;;;;4976908;28;20073;-84
2022/11/27 02:58:39;;;;;;;5.25;0.93;;;13.90;80.60;;;;;;4986352;28;20102;-85
2022/11/27 03:01:26;;;;;;;5.68;2.42;;;13.90;80.60;;;;;;4986713;28;20603;-85
2022/11/27 03:04:17;;;;;;;5.65;1.50;;;14.00;80.80;;;;;;4979013;28;20573;-86
2022/11/27 03:07:13;;;;;;;4.45;1.40;;;13.90;80.60;;;;;;4985798;28;20362;-85
2022/11/27 03:10:02;;;;;;;8.73;1.90;;;13.90;80.70;;;;;;4987913;28;20054;-85
2022/11/27 03:12:47;;;;;;;6.72;1.77;;;13.90;80.60;;;;;;4987635;28;20101;-83
2022/11/27 03:16:06;;;;;;;7.60;2.20;;;13.90;80.70;;;;;;4974482;28;20560;-83
2022/11/27 03:19:01;;;;;;;6.43;1.65;;;14.00;80.90;;;;;;4966592;28;20046;-84
2022/11/27 03:21:52;;;;;;;6.32;1.58;;;14.00;80.80;;;;;;4986875;28;20405;-84
2022/11/27 03:24:36;;;;;;;7.35;1.52;;;13.90;80.60;;;;;;4985265;28;20084;-84
2022/11/27 03:27:27;;;;;;;6.97;1.73;;;14.00;80.80;;;;;;4987731;28;20764;-83
2022/11/27 03:30:12;;;;;;;8.25;2.00;;;14.00;80.80;;;;;;4986974;28;20150;-85
2022/11/27 03:32:57;;;;;;;4.43;1.23;;;14.00;80.80;;;;;;4986962;28;20057;-85
2022/11/27 03:35:41;;;;;;;5.45;1.73;;;14.00;80.80;;;;;;4985845;28;20040;-84
2022/11/27 03:38:26;;;;;;;4.85;1.80;;;14.00;80.80;;;;;;4987167;28;20045;-85
2022/11/27 03:41:37;;;;;;;6.70;1.15;;;14.00;80.80;;;;;;4976911;28;20053;-86
2022/11/27 03:44:28;;;;;;;7.95;2.45;;;14.10;81.00;;;;;;4978591;28;20554;-85
2022/11/27 03:47:27;;;;;;;3.58;1.30;;;14.10;81.00;;;;;;4984143;28;20153;-83
2022/11/27 03:50:27;;;;;;;6.22;1.52;;;14.10;81.00;;;;;;4988627;28;20076;-86
2022/11/27 03:53:19;;;;;;;5.25;2.13;;;14.10;81.00;;;;;;4982065;28;20526;-84
2022/11/27 03:56:19;;;;;;;6.55;1.60;;;14.10;80.90;;;;;;4987705;28;20049;-83
2022/11/27 03:59:03;;;;;;;9.88;2.38;;;14.10;81.00;;;;;;4975928;28;20049;-83
2022/11/27 04:01:48;;;;;;;7.47;2.05;;;14.10;80.90;;;;;;4986663;28;20108;-84
2022/11/27 04:04:33;;;;;;;5.40;1.90;;;14.10;80.90;;;;;;4987838;28;20049;-83
2022/11/27 04:07:17;;;;;;;7.47;2.60;;;14.10;81.00;;;;;;4972058;28;20057;-83
2022/11/27 04:10:03;;;;;;;12.45;2.10;;;14.10;81.00;;;;;;4984886;28;20557;-83
2022/11/27 04:12:47;;;;;;;6.65;2.00;;;14.10;81.00;;;;;;4989279;28;20041;-84
2022/11/27 04:15:32;;;;;;;7.45;2.17;;;14.10;81.00;;;;;;4981764;28;20053;-85
2022/11/27 04:18:17;;;;;;;8.27;3.35;;;14.10;81.00;;;;;;4988432;28;20045;-85
2022/11/27 04:21:02;;;;;;;8.73;2.38;;;14.10;81.00;;;;;;4986799;28;20572;-86
2022/11/27 04:23:46;;;;;;;8.95;1.75;;;14.10;81.00;;;;;;4980005;28;20649;-84
2022/11/27 04:26:31;;;;;;;9.07;2.47;;;14.10;81.00;;;;;;4980426;28;20045;-83
2022/11/27 04:29:15;;;;;;;8.40;2.15;;;14.10;81.00;;;;;;4992412;28;20128;-85
2022/11/27 04:32:00;;;;;;;9.20;2.75;;;14.10;81.00;;;;;;4991996;28;20073;-84
2022/11/27 04:34:44;;;;;;;10.13;2.60;;;14.00;80.90;;;;;;4982564;28;20049;-84
2022/11/27 04:37:29;;;;;;;7.50;2.45;;;14.00;80.80;;;;;;4974376;28;20036;-83
2022/11/27 04:40:14;;;;;;;11.23;1.83;;;14.00;80.90;;;;;;4984303;28;20050;-84
2022/11/27 04:42:58;;;;;;;8.63;3.15;;;14.00;80.90;;;;;;4980330;28;20061;-83
2022/11/27 04:45:43;;;;;;;9.07;3.67;;;14.00;80.90;;;;;;4983790;28;20438;-85
2022/11/27 04:48:27;;;;;;;14.98;4.13;;;14.00;80.90;;;;;;4985485;28;20198;-85
2022/11/27 04:51:12;;;;;;;13.48;3.08;;;14.00;80.90;;;;;;4990231;28;20062;-85
2022/11/27 04:53:57;;;;;;;10.23;2.70;;;13.90;80.70;;;;;;4986825;28;20099;-86
2022/11/27 04:56:41;;;;;;;10.60;3.90;;;14.00;80.90;;;;;;4986475;28;20413;-84
2022/11/27 04:59:26;;;;;;;10.52;3.00;;;13.90;80.70;;;;;;4982613;28;20045;-84
2022/11/27 05:02:10;;;;;;;12.35;2.30;;;13.90;80.70;;;;;;4976096;28;20508;-85
2022/11/27 05:04:55;;;;;;;13.15;3.42;;;13.90;80.70;;;;;;4991156;28;20041;-84
2022/11/27 05:07:39;;;;;;;13.77;3.03;;;13.90;80.80;;;;;;4983612;28;20038;-83
2022/11/27 05:10:24;;;;;;;13.32;2.80;;;13.90;80.70;;;;;;4977560;28;20057;-84
2022/11/27 05:13:09;;;;;;;14.15;3.60;;;13.90;80.70;;;;;;4989993;28;20089;-84
2022/11/27 05:15:53;;;;;;;16.90;3.63;;;13.90;80.70;;;;;;4985367;28;20065;-83
2022/11/27 05:18:38;;;;;;;13.18;2.90;;;13.90;80.70;;;;;;4984030;28;20053;-81
2022/11/27 05:21:22;;;;;;;11.63;2.92;;;13.90;80.70;;;;;;4989269;28;20041;-83
2022/11/27 05:24:07;;;;;;;17.13;4.38;;;13.90;80.70;;;;;;4987973;28;20041;-83
2022/11/27 05:26:52;;;;;;;16.02;3.90;;;13.90;80.70;;;;;;4989177;28;20100;-84
2022/11/27 05:29:38;;;;;;;12.68;4.25;;;13.90;80.70;;;;;;4990535;28;20537;-84
2022/11/27 05:32:22;;;;;;;9.30;2.50;;;13.80;80.50;;;;;;4990564;28;20422;-83
2022/11/27 05:35:07;;;;;;;15.55;3.78;;;13.80;80.50;;;;;;4983290;28;20112;-83
2022/11/27 05:37:52;;;;;;;11.63;3.08;;;13.70;80.40;;;;;;4976269;28;20119;-83
2022/11/27 05:40:37;;;;;;;11.80;4.03;;;13.70;80.40;;;;;;4990677;28;20053;-84
2022/11/27 05:43:21;;;;;;;12.55;3.42;;;13.70;80.40;;;;;;4984797;28;20097;-83
2022/11/27 05:46:08;;;;;;;15.10;4.43;;;13.70;80.40;;;;;;4983599;28;20322;-86
2022/11/27 05:48:53;;;;;;;16.98;3.92;;;13.60;80.30;;;;;;4983162;28;20096;-81
2022/11/27 05:51:38;;;;;;;18.02;3.58;;;13.60;80.30;;;;;;4979752;28;20335;-85
2022/11/27 05:54:22;;;;;;;18.05;5.00;;;13.60;80.30;;;;;;4985862;28;20212;-81
2022/11/27 05:57:07;;;;;;;18.42;3.55;;;13.50;80.20;;;;;;4985812;28;20040;-84
2022/11/27 05:59:51;;;;;;;14.43;3.65;;;13.50;80.20;;;;;;4984215;28;20599;-82
2022/11/27 06:02:36;;;;;;;14.43;3.67;;;13.50;80.30;;;;;;4987335;28;20092;-84
2022/11/27 06:05:21;;;;;;;18.60;4.40;;;13.50;80.30;;;;;;4969302;28;20037;-84
2022/11/27 06:08:06;;;;;;;15.55;3.75;;;13.50;80.40;;;;;;4990480;28;21227;-84
2022/11/27 06:10:50;;;;;;;19.17;4.60;;;13.40;80.20;;;;;;4995469;28;20442;-85
2022/11/27 06:13:35;;;;;;;17.70;4.35;;;13.40;80.20;;;;;;4985593;28;20105;-89
2022/11/27 06:16:21;;;;;;;20.75;4.40;;;13.40;80.20;;;;;;5001191;28;20078;-84
2022/11/27 06:19:07;;;;;;;18.95;4.38;;;13.40;80.20;;;;;;5009661;28;20034;-82
2022/11/27 06:21:52;;;;;;;14.98;4.40;;;13.40;80.20;;;;;;4992016;28;20058;-82
2022/11/27 06:24:36;;;;;;;17.13;4.82;;;13.30;80.10;;;;;;4984552;28;20041;-87
2022/11/27 06:27:20;;;;;;;21.25;5.25;;;13.30;80.10;;;;;;4987584;28;20498;-85
2022/11/27 06:30:06;;;;;;;16.55;5.22;;;13.30;80.10;;;;;;4988079;28;20104;-81
2022/11/27 06:32:50;;;;;;;16.38;3.15;;;13.20;79.90;;;;;;4985149;28;20073;-81
2022/11/27 06:35:35;;;;;;;13.73;3.00;;;13.20;80.00;;;;;;4982620;28;20037;-80
2022/11/27 06:38:19;;;;;;;20.88;4.18;;;13.20;80.00;;;;;;4985777;28;20060;-78
2022/11/27 06:41:07;;;;;;;28.17;5.20;;;13.20;80.00;;;;;;4973616;28;20470;-83
2022/11/27 06:43:52;;;;;;;21.02;4.07;;;13.10;79.90;;;;;;4985385;28;20045;-79
2022/11/27 06:46:37;;;;;;;18.23;4.53;;;13.10;79.90;;;;;;4972614;28;20061;-79
2022/11/27 06:49:22;;;;;;;17.30;4.47;;;13.10;79.90;;;;;;4979879;28;20668;-81
2022/11/27 06:52:07;;;;;;;18.00;4.20;;;13.10;80.50;;;;;;4983507;28;20084;-82
2022/11/27 06:54:51;;;;;;;22.08;4.32;;;13.00;79.80;;;;;;4985927;28;20039;-81
2022/11/27 06:57:35;;;;;;;18.27;5.78;;;13.00;79.80;;;;;;4976866;28;20073;-81
2022/11/27 07:00:20;;;;;;;13.88;4.68;;;13.00;79.90;;;;;;4968806;28;20472;-82
2022/11/27 07:03:04;;;;;;;14.48;4.18;;;13.00;79.90;;;;;;4984071;28;20091;-80
2022/11/27 07:05:49;;;;;;;14.57;4.03;;;13.00;79.90;;;;;;4980190;28;20072;-83
2022/11/27 07:08:34;;;;;;;20.98;5.30;;;13.00;79.90;;;;;;4980578;28;20069;-83
2022/11/27 07:11:21;;;;;;;19.95;4.75;;;13.00;79.90;;;;;;4984325;28;20305;-85
2022/11/27 07:14:06;;;;;;;18.88;4.70;;;13.00;79.90;;;;;;4984396;28;20176;-85
2022/11/27 07:16:50;;;;;;;14.63;3.75;;;12.90;79.70;;;;;;4972033;28;20073;-87
2022/11/27 07:19:35;;;;;;;24.73;4.95;;;12.90;79.70;;;;;;4981315;28;20045;-81
2022/11/27 07:22:20;;;;;;;20.58;4.85;;;12.90;79.80;;;;;;4979773;28;20298;-83
2022/11/27 07:25:05;;;;;;;16.58;4.07;;;12.90;79.80;;;;;;4983663;28;20553;-86
2022/11/27 07:27:49;;;;;;;22.88;6.00;;;12.80;79.60;;;;;;4984196;28;20506;-82
2022/11/27 07:30:34;;;;;;;18.67;5.05;;;12.80;79.60;;;;;;4981241;28;20049;-82
2022/11/27 07:33:18;;;;;;;18.92;4.32;;;12.80;79.70;;;;;;4984341;28;20991;-85
2022/11/27 07:36:12;;;;;;;13.00;3.95;;;12.80;79.70;;;;;;4982433;28;20053;-88
2022/11/27 07:38:59;;;;;;;;;;;12.70;79.50;;;;;;4979669;28;20034;-87
2022/11/27 07:41:43;;;;;;;17.80;5.30;;;12.80;79.70;;;;;;4993262;28;20012;-90
2022/11/27 07:44:28;;;;;;;18.85;5.60;;;12.70;79.40;;;;;;4984515;28;20147;-87
2022/11/27 07:47:13;;;;;;;19.40;4.18;;;12.70;79.50;;;;;;4977193;28;20061;-86
2022/11/27 07:49:59;;;;;;;22.63;4.63;;;12.70;79.50;;;;;;4982031;28;20053;-85
2022/11/27 07:52:43;;;;;;;18.10;4.68;;;12.70;79.50;;;;;;4972941;28;20130;-84
2022/11/27 07:55:28;;;;;;;17.83;4.55;;;12.60;79.40;;;;;;4980616;28;20057;-81
2022/11/27 07:58:13;;;;;;;17.63;5.28;;;12.60;79.40;;;;;;4984161;28;20038;-82
2022/11/27 08:00:57;;;;;;;17.00;5.97;;;12.60;79.40;;;;;;4984025;28;20417;-82
2022/11/27 08:03:43;;;;;;;21.73;5.93;;;12.60;79.50;;;;;;4987776;28;20399;-86
2022/11/27 08:06:27;;;;;;;14.15;4.40;;;12.60;79.40;;;;;;4983873;28;20545;-85
2022/11/27 08:09:12;;;;;;;18.52;4.82;;;12.60;79.40;;;;;;4988161;28;20100;-85
2022/11/27 08:11:56;;;;;;;15.52;5.75;;;12.60;79.40;;;;;;4975316;28;20121;-84
2022/11/27 08:14:41;;;;;;;17.92;6.07;;;12.60;79.40;;;;;;4984679;28;20094;-82
2022/11/27 08:17:25;;;;;;;15.98;4.63;;;12.60;79.40;;;;;;4982778;28;20232;-82
2022/11/27 08:20:10;;;;;;;16.88;5.30;;;12.60;79.40;;;;;;4981753;28;20720;-83
2022/11/27 08:22:55;;;;;;;19.88;6.18;;;12.60;79.30;;;;;;4985808;28;20112;-83
2022/11/27 08:25:39;;;;;;;18.00;4.90;;;12.60;79.30;;;;;;4988272;28;20048;-89
2022/11/27 08:28:24;;;;;;;20.73;5.15;;;12.60;79.30;;;;;;4984482;28;20077;-85
2022/11/27 08:31:11;;;;;;;18.45;6.50;;;12.60;79.20;;;;;;4986897;28;20080;-85
2022/11/27 08:33:56;;;;;;;20.63;5.05;;;12.60;79.20;;;;;;4986785;28;20508;-83
2022/11/27 08:36:40;;;;;;;15.40;5.20;;;12.70;79.30;;;;;;4976674;28;20042;-84
2022/11/27 08:39:25;;;;;;;15.38;6.47;;;12.70;79.20;;;;;;4987446;28;20045;-84
2022/11/27 08:42:10;;;;;;;18.05;6.18;;;12.70;79.20;;;;;;4988463;28;20042;-83
2022/11/27 08:44:54;;;;;;;16.48;5.90;;;12.70;79.10;;;;;;4977989;28;20049;-84
2022/11/27 08:47:39;;;;;;;19.08;5.03;;;12.80;79.20;;;;;;4968746;28;20144;-83
2022/11/27 08:50:24;;;;;;;13.13;4.90;;;12.80;79.10;;;;;;4983028;28;20136;-84
2022/11/27 08:53:08;;;;;;;15.90;5.70;;;12.80;79.00;;;;;;4982016;28;20038;-83
2022/11/27 08:55:53;;;;;;;17.23;5.50;;;12.80;78.90;;;;;;4984368;28;20041;-83
2022/11/27 08:58:39;;;;;;;17.20;5.32;;;12.90;79.00;;;;;;4984997;28;20057;-82
2022/11/27 09:01:27;;;;;;;15.18;5.90;;;12.90;79.00;;;;;;4987346;28;20043;-84
2022/11/27 09:04:11;;;;;;;18.30;4.78;;;13.00;79.10;;;;;;4983514;28;20138;-82
2022/11/27 09:06:55;;;;;;;17.42;4.93;;;13.00;79.00;;;;;;4986293;28;20049;-84
2022/11/27 09:09:40;;;;;;;20.95;6.63;;;13.00;78.90;;;;;;4987098;28;20453;-83
2022/11/27 09:12:26;;;;;;;18.33;5.68;;;13.10;79.00;;;;;;4988015;28;20488;-83
2022/11/27 09:15:12;;;;;;;19.90;4.78;;;13.10;78.90;;;;;;4987717;28;20521;-85
2022/11/27 09:17:56;;;;;;;16.70;5.18;;;13.20;78.90;;;;;;4981297;28;20549;-85
2022/11/27 09:20:41;;;;;;;15.68;5.18;;;13.20;78.80;;;;;;4986626;28;20043;-86
2022/11/27 09:23:26;;;;;;;21.05;7.03;;;13.30;78.90;;;;;;4976205;28;20029;-86
2022/11/27 09:26:13;;;;;;;17.40;4.88;;;13.30;78.80;;;;;;4988404;28;20240;-86
2022/11/27 09:28:58;;;;;;;13.23;4.40;;;13.30;78.80;;;;;;4985245;28;20229;-86
2022/11/27 09:31:42;;;;;;;14.23;4.47;;;13.30;78.70;;;;;;4988454;28;20092;-89
2022/11/27 09:34:27;;;;;;;18.23;5.90;;;13.40;78.80;;;;;;4986809;28;20190;-88
2022/11/27 09:37:11;;;;;;;17.42;5.15;;;13.40;78.70;;;;;;4973638;28;20089;-88
2022/11/27 09:39:58;;;;;;;19.25;4.50;;;13.40;78.60;;;;;;4984225;28;20069;-84
2022/11/27 09:42:52;;;;;;;15.05;5.78;;;13.50;78.70;;;;;;4974167;28;20084;-85
2022/11/27 09:45:49;;;;;;;21.63;5.82;;;13.50;78.70;;;;;;4984392;28;20399;-83
2022/11/27 09:48:38;;;;;;;23.08;5.70;;;13.50;78.70;;;;;;4981646;28;20124;-82
2022/11/27 09:51:38;;;;;;;23.90;7.57;;;13.60;78.80;;;;;;4985671;28;20045;-85
2022/11/27 09:54:29;;;;;;;16.08;4.28;;;13.60;78.70;;;;;;4985235;28;20065;-82
2022/11/27 09:57:16;;;;;;;17.85;6.38;;;13.70;78.70;;;;;;4986410;28;20146;-92
2022/11/27 10:00:05;;;;;;;16.83;4.82;;;13.80;78.70;;;;;;4970388;28;20402;-91
2022/11/27 10:02:51;;;;;;;22.52;5.90;;;13.90;78.80;;;;;;4984856;28;20045;-86
2022/11/27 10:05:48;;;;;;;20.20;4.65;;;14.00;78.80;;;;;;4983776;28;20044;-89
2022/11/27 10:08:58;;;;;;;21.73;5.40;;;14.00;78.60;;;;;;4970167;28;20057;-84
2022/11/27 10:12:04;;;;;;;19.80;5.07;;;14.10;78.60;;;;;;4983824;28;20065;-84
2022/11/27 10:14:58;;;;;;;16.48;5.90;;;14.20;79.10;;;;;;4984186;28;20038;-83
2022/11/27 10:17:51;;;;;;;19.13;5.43;;;14.30;78.50;;;;;;4979446;28;20045;-84
2022/11/27 10:20:42;;;;;;;30.52;7.60;;;14.30;78.40;;;;;;4980320;28;20217;-85
2022/11/27 10:23:40;;;;;;;24.08;7.95;;;14.40;78.70;;;;;;4974915;28;20437;-85
2022/11/27 10:26:35;;;;;;;25.20;7.18;;;14.50;79.20;;;;;;4975753;28;20049;-85
2022/11/27 10:29:34;;;;;;;23.35;6.88;;;14.70;79.50;;;;;;4985202;28;20053;-87
2022/11/27 10:32:25;;;;;;;26.70;6.50;;;14.90;79.80;;;;;;4982665;28;20564;-87
2022/11/27 10:35:18;;;;;;;22.45;6.75;;;15.10;80.00;;;;;;4982407;28;20108;-83
2022/11/27 10:38:16;;;;;;;24.30;7.50;;;15.30;80.20;;;;;;4976956;28;20314;-82
2022/11/27 10:41:25;;;;;;;24.95;8.27;;;15.40;80.20;;;;;;4988112;28;20065;-81
2022/11/27 10:44:32;;;;;;;20.33;6.32;;;15.60;80.40;;;;;;4986977;28;20077;-84
2022/11/27 10:47:20;;;;;;;23.33;6.10;;;15.70;80.40;;;;;;4974547;28;20154;-86
2022/11/27 10:50:16;;;;;;;21.02;5.18;;;15.80;80.30;;;;;;4974986;28;20116;-87
2022/11/27 10:53:14;;;;;;;23.10;5.53;;;16.00;80.50;;;;;;4988323;28;20580;-87
2022/11/27 10:56:11;;;;;;;17.77;5.07;;;16.10;80.50;;;;;;4983394;28;20042;-88
2022/11/27 10:59:00;;;;;;;18.55;6.32;;;16.20;80.40;;;;;;4987075;28;20049;-87
2022/11/27 11:01:52;;;;;;;30.00;7.07;;;16.30;80.40;;;;;;4987760;28;20088;-89
2022/11/27 11:04:36;;;;;;;26.40;6.28;;;16.30;80.20;;;;;;4986771;28;20065;-87
2022/11/27 11:07:27;;;;;;;16.08;5.35;;;16.40;80.10;;;;;;4988547;28;20077;-86
2022/11/27 11:10:28;;;;;;;14.93;4.60;;;16.50;80.20;;;;;;4991470;28;20064;-87
2022/11/27 11:13:19;;;;;;;26.15;7.82;;;16.60;80.20;;;;;;4963648;28;20197;-85
2022/11/27 11:16:05;;;;;;;22.08;5.68;;;16.70;80.10;;;;;;4987217;28;20429;-86
2022/11/27 11:18:52;;;;;;;20.63;6.25;;;16.80;80.00;;;;;;4995015;28;20073;-87
2022/11/27 11:21:43;;;;;;;23.33;6.18;;;16.80;79.80;;;;;;4988913;28;20057;-88
2022/11/27 11:24:31;;;;;;;23.33;5.82;;;16.90;79.80;;;;;;5009141;28;20206;-87
2022/11/27 11:27:28;;;;;;;20.83;5.80;;;17.00;79.80;;;;;;5007471;28;20111;-88
2022/11/27 11:30:28;;;;;;;20.13;5.53;;;17.10;79.80;;;;;;5003403;28;20544;-89
2022/11/27 11:33:13;;;;;;;25.20;5.68;;;17.10;79.40;;;;;;4973093;28;20642;-86
2022/11/27 11:36:07;;;;;;;19.38;5.55;;;17.10;79.30;;;;;;4987557;28;20049;-92
2022/11/27 11:38:52;;;;;;;13.45;5.00;;;17.10;79.10;;;;;;4988110;28;20068;-91
2022/11/27 11:41:38;;;;;;;19.63;4.95;;;17.20;79.20;;;;;;4986287;28;20053;-88
2022/11/27 11:44:29;;;;;;;19.35;5.43;;;17.30;79.20;;;;;;4978840;28;20218;-86
2022/11/27 11:47:19;;;;;;;18.95;4.72;;;17.30;79.00;;;;;;4983807;28;20105;-86
2022/11/27 11:50:04;;;;;;;19.38;5.07;;;17.30;78.90;;;;;;4985296;28;20077;-86
2022/11/27 11:52:48;;;;;;;19.05;4.88;;;17.40;78.80;;;;;;4985123;28;20041;-89
2022/11/27 11:55:42;;;;;;;17.25;5.13;;;17.50;78.80;;;;;;4984547;28;20104;-87
2022/11/27 11:58:45;;;;;;;20.40;5.25;;;17.50;78.50;;;;;;4970727;28;20081;-89
2022/11/27 12:01:53;;;;;;;26.95;7.63;;;17.60;78.40;;;;;;4985080;28;20061;-88
2022/11/27 12:05:07;;;;;;;18.63;5.53;;;17.60;78.30;;;;;;4990073;28;20037;-93
2022/11/27 12:08:38;;;;;;;16.45;4.63;;;17.70;78.00;;;;;;4981396;28;20050;-87
2022/11/27 12:11:39;;;;;;;24.13;7.05;;;17.80;78.00;;;;;;4989068;28;20118;-91
2022/11/27 12:14:32;;;;;;;22.35;5.95;;;17.80;77.90;;;;;;4987355;28;20077;-91
2022/11/27 12:17:53;;;;;;;22.15;6.32;;;17.80;77.70;;;;;;4986467;28;20054;-92
2022/11/27 12:21:14;;;;;;;16.27;4.90;;;17.90;77.80;;;;;;4977920;28;20057;-89
2022/11/27 12:24:19;;;;;;;21.05;5.80;;;17.90;77.50;;;;;;4985302;28;20104;-88
2022/11/27 12:27:29;;;;;;;24.20;5.80;;;18.00;77.60;;;;;;4981403;28;20430;-84
2022/11/27 12:30:19;;;;;;;26.77;6.07;;;18.00;77.30;;;;;;4998639;28;20088;-82
2022/11/27 12:33:18;;;;;;;21.42;6.32;;;18.00;77.20;;;;;;4986395;28;20045;-85
2022/11/27 12:36:48;;;;;;;24.05;5.57;;;18.10;77.20;;;;;;4983511;28;20211;-84
2022/11/27 12:39:48;;;;;;;24.15;6.20;;;18.10;77.00;;;;;;4960498;28;20045;-84
2022/11/27 12:42:53;;;;;;;28.08;6.57;;;18.00;77.00;;;;;;4983967;28;20048;-88
2022/11/27 12:45:48;;;;;;;19.40;5.10;;;18.10;76.90;;;;;;4980524;28;20041;-86
2022/11/27 12:48:39;;;;;;;21.50;6.57;;;18.10;76.80;;;;;;4983230;28;20154;-85
2022/11/27 12:51:33;;;;;;;20.35;5.80;;;18.10;76.70;;;;;;4981775;28;20073;-85
2022/11/27 12:54:24;;;;;;;18.92;5.75;;;18.10;76.60;;;;;;4981858;28;20085;-88
2022/11/27 12:57:19;;;;;;;15.88;5.05;;;18.10;76.50;;;;;;4993695;28;20049;-88
2022/11/27 13:00:12;;;;;;;19.80;6.13;;;18.20;76.40;;;;;;4997121;28;20053;-92
2022/11/27 13:03:26;;;;;;;25.60;6.13;;;18.10;76.20;;;;;;4970084;28;20062;-85
2022/11/27 13:06:15;;;;;;;23.00;6.72;;;18.10;76.00;;;;;;4982935;28;20042;-91
2022/11/27 13:09:14;;;;;;;28.77;7.65;;;18.10;76.00;;;;;;4984635;28;20552;-86
2022/11/27 13:12:00;;;;;;;28.25;10.20;;;18.10;75.80;;;;;;4982127;28;20089;-95
2022/11/27 13:14:58;;;;;;;28.75;7.95;;;18.10;75.80;;;;;;4990605;28;20520;-91
2022/11/27 13:17:44;;;;;;;27.92;9.40;;;18.10;75.60;;;;;;4986365;28;20434;-87
2022/11/27 13:20:37;;;;;;;25.25;7.15;;;18.10;75.70;;;;;;4992522;28;20100;-95
2022/11/27 13:23:22;;;;;;;25.88;7.05;;;18.00;75.30;;;;;;4985476;28;20065;-95
2022/11/27 13:26:21;;;;;;;27.75;6.85;;;18.00;75.40;;;;;;4998366;28;20092;-94
2022/11/27 13:29:24;;;;;;;20.95;6.30;;;17.90;75.10;;;;;;4987831;28;20085;-87
2022/11/27 13:32:15;;;;;;;26.98;5.60;;;17.90;75.20;;;;;;4979728;28;20137;-93
2022/11/27 13:35:03;;;;;;;26.85;7.03;;;17.80;75.00;;;;;;4978522;28;20046;-86
2022/11/27 13:38:08;;;;;;;25.95;7.22;;;17.80;75.10;;;;;;4977164;28;20397;-94
2022/11/27 13:40:55;;;;;;;28.10;8.00;;;17.80;75.20;;;;;;4984651;28;20053;-89
2022/11/27 13:43:41;;;;;;;31.92;9.02;;;17.80;75.30;;;;;;4990757;28;20073;-95
2022/11/27 13:46:29;;;;;;;22.85;5.90;;;17.70;75.10;;;;;;4987849;28;20053;-93
2022/11/27 13:49:26;;;;;;;23.38;6.43;;;17.70;75.30;;;;;;4987912;28;20569;-93
2022/11/27 13:52:19;;;;;;;24.10;6.35;;;17.70;75.40;;;;;;4986784;28;20049;-87
2022/11/27 13:55:06;;;;;;;;;;;17.70;75.50;;;;;;4984477;28;20057;-85
2022/11/27 13:57:56;;;;;;;24.77;5.55;;;17.60;75.40;;;;;;4975133;28;19952;-94
2022/11/27 14:00:43;;;;;;;30.15;7.57;;;17.60;75.50;;;;;;4989157;28;20133;-93
2022/11/27 14:03:29;;;;;;;24.20;6.47;;;17.60;75.40;;;;;;4984570;28;20053;-83
2022/11/27 14:06:25;;;;;;;28.17;5.93;;;17.50;75.20;;;;;;4985168;28;20069;-82
2022/11/27 14:09:10;;;;;;;23.23;5.85;;;17.50;75.30;;;;;;4981868;28;20139;-83
2022/11/27 14:11:54;;;;;;;20.02;6.72;;;17.40;75.10;;;;;;4987405;28;20105;-84
2022/11/27 14:14:41;;;;;;;22.58;5.88;;;17.40;75.10;;;;;;4987246;28;20113;-83
2022/11/27 14:17:54;;;;;;;24.02;6.82;;;17.40;75.20;;;;;;4980653;28;20044;-87
2022/11/27 14:20:58;;;;;;;25.27;7.75;;;17.30;75.00;;;;;;4978287;28;20054;-85
2022/11/27 14:23:50;;;;;;;26.10;7.75;;;17.20;74.80;;;;;;4976039;28;20088;-83
2022/11/27 14:26:34;;;;;;;23.23;7.10;;;17.20;74.90;;;;;;4974077;28;20107;-92
2022/11/27 14:29:21;;;;;;;21.13;6.38;;;17.10;74.90;;;;;;4984620;28;20049;-92
2022/11/27 14:32:11;;;;;;;22.33;5.68;;;17.00;74.80;;;;;;4986203;28;20040;-83
2022/11/27 14:34:55;;;;;;;19.73;5.10;;;17.00;74.90;;;;;;4975910;28;20103;-83